sensor_id;sensor_type;location;lat;lon;timestamp;P1;durP1;ratioP1;P2;durP2;ratioP2
11220;SDS011;8517;53.546;10.104;2023-05-10T00:00:44;7.17;;;3.57;;
11220;SDS011;8517;53.546;10.104;2023-05-10T00:03:11;3.70;;;3.10;;
11220;SDS011;8517;53.546;10.104;2023-05-10T00:05:39;4.67;;;3.17;;
11220;SDS011;8517;53.546;10.104;2023-05-10T00:08:06;3.43;;;3.13;;
11220;SDS011;8517;53.546;10.104;2023-05-10T00:10:33;4.93;;;2.80;;
11220;SDS011;8517;53.546;10.104;2023-05-10T00:12:59;5.93;;;3.37;;
11220;SDS011;8517;53.546;10.104;2023-05-10T00:15:26;3.90;;;3.17;;
11220;SDS011;8517;53.546;10.104;2023-05-10T00:17:55;5.93;;;3.33;;
11220;SDS011;8517;53.546;10.104;2023-05-10T00:20:22;4.23;;;3.43;;
11220;SDS011;8517;53.546;10.104;2023-05-10T00:22:50;3.70;;;3.30;;
11220;SDS011;8517;53.546;10.104;2023-05-10T00:25:17;6.70;;;2.90;;
11220;SDS011;8517;53.546;10.104;2023-05-10T00:27:44;4.53;;;3.37;;
11220;SDS011;8517;53.546;10.104;2023-05-10T00:30:11;4.70;;;3.60;;
11220;SDS011;8517;53.546;10.104;2023-05-10T00:32:38;4.00;;;3.13;;
11220;SDS011;8517;53.546;10.104;2023-05-10T00:35:04;4.80;;;3.20;;
11220;SDS011;8517;53.546;10.104;2023-05-10T00:37:32;3.70;;;3.17;;
11220;SDS011;8517;53.546;10.104;2023-05-10T00:40:00;3.43;;;3.13;;
11220;SDS011;8517;53.546;10.104;2023-05-10T00:42:27;7.00;;;3.60;;
11220;SDS011;8517;53.546;10.104;2023-05-10T00:44:54;4.37;;;3.00;;
11220;SDS011;8517;53.546;10.104;2023-05-10T00:47:21;5.07;;;3.23;;
11220;SDS011;8517;53.546;10.104;2023-05-10T00:49:48;5.77;;;3.40;;
11220;SDS011;8517;53.546;10.104;2023-05-10T00:52:15;4.63;;;3.37;;
11220;SDS011;8517;53.546;10.104;2023-05-10T00:54:42;5.70;;;3.37;;
11220;SDS011;8517;53.546;10.104;2023-05-10T00:57:10;6.07;;;3.77;;
11220;SDS011;8517;53.546;10.104;2023-05-10T00:59:37;6.70;;;3.27;;
11220;SDS011;8517;53.546;10.104;2023-05-10T01:02:04;4.23;;;3.47;;
11220;SDS011;8517;53.546;10.104;2023-05-10T01:04:32;4.20;;;3.60;;
11220;SDS011;8517;53.546;10.104;2023-05-10T01:06:59;4.63;;;3.40;;
11220;SDS011;8517;53.546;10.104;2023-05-10T01:09:26;8.47;;;3.03;;
11220;SDS011;8517;53.546;10.104;2023-05-10T01:11:53;4.37;;;3.13;;
11220;SDS011;8517;53.546;10.104;2023-05-10T01:14:22;4.40;;;3.10;;
11220;SDS011;8517;53.546;10.104;2023-05-10T01:16:50;4.80;;;3.40;;
11220;SDS011;8517;53.546;10.104;2023-05-10T01:19:21;5.10;;;3.20;;
11220;SDS011;8517;53.546;10.104;2023-05-10T01:21:53;5.47;;;3.40;;
11220;SDS011;8517;53.546;10.104;2023-05-10T01:27:42;7.40;;;3.70;;
11220;SDS011;8517;53.546;10.104;2023-05-10T01:33:30;5.07;;;3.70;;
11220;SDS011;8517;53.546;10.104;2023-05-10T01:36:03;6.50;;;3.17;;
11220;SDS011;8517;53.546;10.104;2023-05-10T01:38:38;5.77;;;3.33;;
11220;SDS011;8517;53.546;10.104;2023-05-10T01:41:11;5.27;;;3.40;;
11220;SDS011;8517;53.546;10.104;2023-05-10T01:43:43;6.53;;;3.20;;
11220;SDS011;8517;53.546;10.104;2023-05-10T01:46:20;5.57;;;3.57;;
11220;SDS011;8517;53.546;10.104;2023-05-10T01:48:54;5.80;;;3.30;;
11220;SDS011;8517;53.546;10.104;2023-05-10T01:51:23;4.80;;;3.80;;
11220;SDS011;8517;53.546;10.104;2023-05-10T01:53:56;4.47;;;3.63;;
11220;SDS011;8517;53.546;10.104;2023-05-10T01:56:26;4.60;;;3.20;;
11220;SDS011;8517;53.546;10.104;2023-05-10T01:58:56;5.57;;;3.00;;
11220;SDS011;8517;53.546;10.104;2023-05-10T02:01:24;7.27;;;4.07;;
11220;SDS011;8517;53.546;10.104;2023-05-10T02:03:54;4.77;;;3.40;;
11220;SDS011;8517;53.546;10.104;2023-05-10T02:06:21;5.20;;;3.50;;
11220;SDS011;8517;53.546;10.104;2023-05-10T02:08:49;5.47;;;3.20;;
11220;SDS011;8517;53.546;10.104;2023-05-10T02:11:18;5.27;;;3.60;;
11220;SDS011;8517;53.546;10.104;2023-05-10T02:13:47;4.73;;;3.03;;
11220;SDS011;8517;53.546;10.104;2023-05-10T02:16:15;4.77;;;3.20;;
11220;SDS011;8517;53.546;10.104;2023-05-10T02:18:44;4.53;;;3.77;;
11220;SDS011;8517;53.546;10.104;2023-05-10T02:21:13;4.93;;;3.43;;
11220;SDS011;8517;53.546;10.104;2023-05-10T02:23:42;5.27;;;3.70;;
11220;SDS011;8517;53.546;10.104;2023-05-10T02:26:11;5.40;;;3.53;;
11220;SDS011;8517;53.546;10.104;2023-05-10T02:28:38;4.37;;;3.67;;
11220;SDS011;8517;53.546;10.104;2023-05-10T02:31:08;4.33;;;3.43;;
11220;SDS011;8517;53.546;10.104;2023-05-10T02:33:37;5.17;;;3.50;;
11220;SDS011;8517;53.546;10.104;2023-05-10T02:36:06;4.20;;;3.80;;
11220;SDS011;8517;53.546;10.104;2023-05-10T02:38:36;3.90;;;3.50;;
11220;SDS011;8517;53.546;10.104;2023-05-10T02:41:03;4.80;;;3.30;;
11220;SDS011;8517;53.546;10.104;2023-05-10T02:43:32;4.53;;;3.67;;
11220;SDS011;8517;53.546;10.104;2023-05-10T02:45:59;4.00;;;3.60;;
11220;SDS011;8517;53.546;10.104;2023-05-10T02:48:26;3.73;;;3.30;;
11220;SDS011;8517;53.546;10.104;2023-05-10T02:50:54;4.80;;;3.70;;
11220;SDS011;8517;53.546;10.104;2023-05-10T02:53:27;8.03;;;3.70;;
11220;SDS011;8517;53.546;10.104;2023-05-10T02:56:00;5.13;;;3.93;;
11220;SDS011;8517;53.546;10.104;2023-05-10T02:58:32;5.20;;;3.60;;
11220;SDS011;8517;53.546;10.104;2023-05-10T03:00:59;6.23;;;3.50;;
11220;SDS011;8517;53.546;10.104;2023-05-10T03:03:26;5.87;;;3.33;;
11220;SDS011;8517;53.546;10.104;2023-05-10T03:05:53;6.23;;;3.77;;
11220;SDS011;8517;53.546;10.104;2023-05-10T03:08:21;5.13;;;3.70;;
11220;SDS011;8517;53.546;10.104;2023-05-10T03:10:51;6.73;;;3.60;;
11220;SDS011;8517;53.546;10.104;2023-05-10T03:13:28;6.73;;;3.67;;
11220;SDS011;8517;53.546;10.104;2023-05-10T03:16:04;4.00;;;3.60;;
11220;SDS011;8517;53.546;10.104;2023-05-10T03:18:37;5.60;;;3.40;;
11220;SDS011;8517;53.546;10.104;2023-05-10T03:21:09;5.13;;;3.70;;
11220;SDS011;8517;53.546;10.104;2023-05-10T03:23:40;6.20;;;3.37;;
11220;SDS011;8517;53.546;10.104;2023-05-10T03:26:09;5.00;;;3.43;;
11220;SDS011;8517;53.546;10.104;2023-05-10T03:28:39;5.47;;;3.30;;
11220;SDS011;8517;53.546;10.104;2023-05-10T03:31:07;6.23;;;3.70;;
11220;SDS011;8517;53.546;10.104;2023-05-10T03:33:35;4.93;;;3.93;;
11220;SDS011;8517;53.546;10.104;2023-05-10T03:36:02;3.90;;;3.50;;
11220;SDS011;8517;53.546;10.104;2023-05-10T03:38:29;4.57;;;3.80;;
11220;SDS011;8517;53.546;10.104;2023-05-10T03:40:55;5.50;;;3.63;;
11220;SDS011;8517;53.546;10.104;2023-05-10T03:43:22;3.43;;;3.13;;
11220;SDS011;8517;53.546;10.104;2023-05-10T03:45:50;4.97;;;3.37;;
11220;SDS011;8517;53.546;10.104;2023-05-10T03:48:17;4.03;;;3.63;;
11220;SDS011;8517;53.546;10.104;2023-05-10T03:50:44;5.03;;;3.43;;
11220;SDS011;8517;53.546;10.104;2023-05-10T03:53:11;6.47;;;4.00;;
11220;SDS011;8517;53.546;10.104;2023-05-10T03:55:38;4.67;;;3.70;;
11220;SDS011;8517;53.546;10.104;2023-05-10T03:58:05;6.23;;;3.60;;
11220;SDS011;8517;53.546;10.104;2023-05-10T04:00:31;3.87;;;3.33;;
11220;SDS011;8517;53.546;10.104;2023-05-10T04:03:00;5.27;;;4.07;;
11220;SDS011;8517;53.546;10.104;2023-05-10T04:05:26;10.17;;;4.07;;
11220;SDS011;8517;53.546;10.104;2023-05-10T04:07:53;3.90;;;3.47;;
11220;SDS011;8517;53.546;10.104;2023-05-10T04:10:20;4.50;;;3.50;;
11220;SDS011;8517;53.546;10.104;2023-05-10T04:12:47;4.40;;;3.90;;
11220;SDS011;8517;53.546;10.104;2023-05-10T04:15:14;6.20;;;4.13;;
11220;SDS011;8517;53.546;10.104;2023-05-10T04:17:41;9.73;;;8.23;;
11220;SDS011;8517;53.546;10.104;2023-05-10T04:20:09;8.37;;;3.93;;
11220;SDS011;8517;53.546;10.104;2023-05-10T04:22:37;5.23;;;3.57;;
11220;SDS011;8517;53.546;10.104;2023-05-10T04:25:04;6.80;;;3.67;;
11220;SDS011;8517;53.546;10.104;2023-05-10T04:27:32;4.57;;;4.00;;
11220;SDS011;8517;53.546;10.104;2023-05-10T04:29:59;7.23;;;3.90;;
11220;SDS011;8517;53.546;10.104;2023-05-10T04:32:25;4.77;;;3.87;;
11220;SDS011;8517;53.546;10.104;2023-05-10T04:34:53;4.20;;;3.70;;
11220;SDS011;8517;53.546;10.104;2023-05-10T04:37:21;4.93;;;3.87;;
11220;SDS011;8517;53.546;10.104;2023-05-10T04:39:48;4.13;;;3.73;;
11220;SDS011;8517;53.546;10.104;2023-05-10T04:42:15;4.83;;;3.80;;
11220;SDS011;8517;53.546;10.104;2023-05-10T04:44:41;5.47;;;3.87;;
11220;SDS011;8517;53.546;10.104;2023-05-10T04:47:08;6.57;;;3.60;;
11220;SDS011;8517;53.546;10.104;2023-05-10T04:49:36;5.33;;;3.73;;
11220;SDS011;8517;53.546;10.104;2023-05-10T04:52:02;3.93;;;3.60;;
11220;SDS011;8517;53.546;10.104;2023-05-10T04:54:31;4.73;;;3.50;;
11220;SDS011;8517;53.546;10.104;2023-05-10T04:56:57;4.47;;;3.80;;
11220;SDS011;8517;53.546;10.104;2023-05-10T04:59:24;4.13;;;3.63;;
11220;SDS011;8517;53.546;10.104;2023-05-10T05:01:51;4.33;;;3.80;;
11220;SDS011;8517;53.546;10.104;2023-05-10T05:04:18;5.37;;;4.10;;
11220;SDS011;8517;53.546;10.104;2023-05-10T05:06:45;4.60;;;3.70;;
11220;SDS011;8517;53.546;10.104;2023-05-10T05:09:11;4.17;;;3.70;;
11220;SDS011;8517;53.546;10.104;2023-05-10T05:11:39;5.87;;;3.93;;
11220;SDS011;8517;53.546;10.104;2023-05-10T05:14:06;3.90;;;3.37;;
11220;SDS011;8517;53.546;10.104;2023-05-10T05:16:33;5.83;;;3.90;;
11220;SDS011;8517;53.546;10.104;2023-05-10T05:19:00;4.23;;;3.83;;
11220;SDS011;8517;53.546;10.104;2023-05-10T05:21:27;5.17;;;3.77;;
11220;SDS011;8517;53.546;10.104;2023-05-10T05:23:54;6.37;;;4.07;;
11220;SDS011;8517;53.546;10.104;2023-05-10T05:26:20;3.53;;;3.23;;
11220;SDS011;8517;53.546;10.104;2023-05-10T05:28:49;5.97;;;3.93;;
11220;SDS011;8517;53.546;10.104;2023-05-10T05:31:18;13.10;;;9.80;;
11220;SDS011;8517;53.546;10.104;2023-05-10T05:33:45;5.47;;;4.03;;
11220;SDS011;8517;53.546;10.104;2023-05-10T05:36:12;5.03;;;3.60;;
11220;SDS011;8517;53.546;10.104;2023-05-10T05:38:39;4.40;;;3.10;;
11220;SDS011;8517;53.546;10.104;2023-05-10T05:41:05;25.13;;;19.23;;
11220;SDS011;8517;53.546;10.104;2023-05-10T05:43:32;7.07;;;3.37;;
11220;SDS011;8517;53.546;10.104;2023-05-10T05:46:00;7.30;;;3.90;;
11220;SDS011;8517;53.546;10.104;2023-05-10T05:48:28;3.47;;;3.17;;
11220;SDS011;8517;53.546;10.104;2023-05-10T05:50:55;4.83;;;3.17;;
11220;SDS011;8517;53.546;10.104;2023-05-10T05:53:22;4.53;;;3.93;;
11220;SDS011;8517;53.546;10.104;2023-05-10T05:55:52;5.33;;;3.30;;
11220;SDS011;8517;53.546;10.104;2023-05-10T05:58:20;3.93;;;3.57;;
11220;SDS011;8517;53.546;10.104;2023-05-10T06:00:47;3.40;;;3.10;;
11220;SDS011;8517;53.546;10.104;2023-05-10T06:03:15;5.23;;;3.57;;
11220;SDS011;8517;53.546;10.104;2023-05-10T06:05:42;4.43;;;3.30;;
11220;SDS011;8517;53.546;10.104;2023-05-10T06:08:09;7.53;;;3.60;;
11220;SDS011;8517;53.546;10.104;2023-05-10T06:10:37;3.90;;;3.47;;
11220;SDS011;8517;53.546;10.104;2023-05-10T06:13:06;3.87;;;3.10;;
11220;SDS011;8517;53.546;10.104;2023-05-10T06:15:41;3.63;;;3.27;;
11220;SDS011;8517;53.546;10.104;2023-05-10T06:18:14;5.47;;;3.37;;
11220;SDS011;8517;53.546;10.104;2023-05-10T06:20:43;5.37;;;3.33;;
11220;SDS011;8517;53.546;10.104;2023-05-10T06:23:09;4.63;;;3.50;;
11220;SDS011;8517;53.546;10.104;2023-05-10T06:25:36;4.93;;;3.53;;
11220;SDS011;8517;53.546;10.104;2023-05-10T06:28:03;3.45;;;3.15;;
11220;SDS011;8517;53.546;10.104;2023-05-10T06:30:30;3.77;;;3.30;;
11220;SDS011;8517;53.546;10.104;2023-05-10T06:32:57;6.03;;;3.40;;
11220;SDS011;8517;53.546;10.104;2023-05-10T06:35:25;4.33;;;3.23;;
11220;SDS011;8517;53.546;10.104;2023-05-10T06:37:52;3.87;;;3.37;;
11220;SDS011;8517;53.546;10.104;2023-05-10T06:40:19;5.03;;;3.20;;
11220;SDS011;8517;53.546;10.104;2023-05-10T06:42:46;4.53;;;3.42;;
11220;SDS011;8517;53.546;10.104;2023-05-10T06:45:13;5.70;;;3.90;;
11220;SDS011;8517;53.546;10.104;2023-05-10T06:47:40;4.27;;;3.20;;
11220;SDS011;8517;53.546;10.104;2023-05-10T06:50:08;12.00;;;10.07;;
11220;SDS011;8517;53.546;10.104;2023-05-10T06:52:37;6.27;;;3.90;;
11220;SDS011;8517;53.546;10.104;2023-05-10T06:55:04;5.37;;;3.47;;
11220;SDS011;8517;53.546;10.104;2023-05-10T06:57:32;5.47;;;3.63;;
11220;SDS011;8517;53.546;10.104;2023-05-10T06:59:59;4.30;;;3.50;;
11220;SDS011;8517;53.546;10.104;2023-05-10T07:02:26;5.63;;;3.73;;
11220;SDS011;8517;53.546;10.104;2023-05-10T07:04:53;5.70;;;3.40;;
11220;SDS011;8517;53.546;10.104;2023-05-10T07:07:19;5.50;;;3.57;;
11220;SDS011;8517;53.546;10.104;2023-05-10T07:09:48;4.13;;;3.40;;
11220;SDS011;8517;53.546;10.104;2023-05-10T07:12:15;4.13;;;3.73;;
11220;SDS011;8517;53.546;10.104;2023-05-10T07:14:42;4.80;;;3.93;;
11220;SDS011;8517;53.546;10.104;2023-05-10T07:17:08;4.73;;;3.53;;
11220;SDS011;8517;53.546;10.104;2023-05-10T07:19:35;4.97;;;3.53;;
11220;SDS011;8517;53.546;10.104;2023-05-10T07:22:02;3.97;;;3.50;;
11220;SDS011;8517;53.546;10.104;2023-05-10T07:24:29;5.57;;;3.90;;
11220;SDS011;8517;53.546;10.104;2023-05-10T07:26:57;6.80;;;3.60;;
11220;SDS011;8517;53.546;10.104;2023-05-10T07:29:24;7.40;;;3.53;;
11220;SDS011;8517;53.546;10.104;2023-05-10T07:31:51;3.30;;;3.00;;
11220;SDS011;8517;53.546;10.104;2023-05-10T07:34:18;8.07;;;6.40;;
11220;SDS011;8517;53.546;10.104;2023-05-10T07:36:45;5.60;;;3.93;;
11220;SDS011;8517;53.546;10.104;2023-05-10T07:39:12;3.93;;;3.63;;
11220;SDS011;8517;53.546;10.104;2023-05-10T07:41:39;5.50;;;3.90;;
11220;SDS011;8517;53.546;10.104;2023-05-10T07:44:07;3.23;;;2.93;;
11220;SDS011;8517;53.546;10.104;2023-05-10T07:46:34;4.43;;;3.80;;
11220;SDS011;8517;53.546;10.104;2023-05-10T07:49:01;5.17;;;3.83;;
11220;SDS011;8517;53.546;10.104;2023-05-10T07:51:28;4.13;;;3.33;;
11220;SDS011;8517;53.546;10.104;2023-05-10T07:53:54;3.83;;;3.33;;
11220;SDS011;8517;53.546;10.104;2023-05-10T07:56:23;4.67;;;3.43;;
11220;SDS011;8517;53.546;10.104;2023-05-10T07:58:52;4.87;;;3.70;;
11220;SDS011;8517;53.546;10.104;2023-05-10T08:01:20;2.80;;;2.60;;
11220;SDS011;8517;53.546;10.104;2023-05-10T08:03:48;3.93;;;3.30;;
11220;SDS011;8517;53.546;10.104;2023-05-10T08:06:16;4.13;;;3.50;;
11220;SDS011;8517;53.546;10.104;2023-05-10T08:08:43;3.63;;;3.30;;
11220;SDS011;8517;53.546;10.104;2023-05-10T08:11:14;4.70;;;3.30;;
11220;SDS011;8517;53.546;10.104;2023-05-10T08:13:41;7.43;;;3.30;;
11220;SDS011;8517;53.546;10.104;2023-05-10T08:16:07;5.67;;;4.17;;
11220;SDS011;8517;53.546;10.104;2023-05-10T08:18:36;4.13;;;3.60;;
11220;SDS011;8517;53.546;10.104;2023-05-10T08:21:04;4.70;;;3.77;;
11220;SDS011;8517;53.546;10.104;2023-05-10T08:23:31;4.00;;;3.60;;
11220;SDS011;8517;53.546;10.104;2023-05-10T08:25:58;4.00;;;3.60;;
11220;SDS011;8517;53.546;10.104;2023-05-10T08:28:25;5.33;;;3.80;;
11220;SDS011;8517;53.546;10.104;2023-05-10T08:30:52;4.00;;;3.60;;
11220;SDS011;8517;53.546;10.104;2023-05-10T08:33:18;5.10;;;3.40;;
11220;SDS011;8517;53.546;10.104;2023-05-10T08:35:47;3.50;;;3.20;;
11220;SDS011;8517;53.546;10.104;2023-05-10T08:38:14;4.50;;;3.67;;
11220;SDS011;8517;53.546;10.104;2023-05-10T08:40:41;4.50;;;3.70;;
11220;SDS011;8517;53.546;10.104;2023-05-10T08:43:09;9.27;;;6.83;;
11220;SDS011;8517;53.546;10.104;2023-05-10T08:45:38;4.63;;;3.67;;
11220;SDS011;8517;53.546;10.104;2023-05-10T08:48:06;4.50;;;4.10;;
11220;SDS011;8517;53.546;10.104;2023-05-10T08:50:35;4.23;;;3.70;;
11220;SDS011;8517;53.546;10.104;2023-05-10T08:53:05;4.40;;;3.40;;
11220;SDS011;8517;53.546;10.104;2023-05-10T08:55:35;4.53;;;3.83;;
11220;SDS011;8517;53.546;10.104;2023-05-10T08:58:03;4.83;;;3.80;;
11220;SDS011;8517;53.546;10.104;2023-05-10T09:00:30;7.77;;;4.23;;
11220;SDS011;8517;53.546;10.104;2023-05-10T09:02:57;4.33;;;3.77;;
11220;SDS011;8517;53.546;10.104;2023-05-10T09:05:25;4.93;;;3.73;;
11220;SDS011;8517;53.546;10.104;2023-05-10T09:07:52;6.60;;;4.13;;
11220;SDS011;8517;53.546;10.104;2023-05-10T09:10:20;4.07;;;3.63;;
11220;SDS011;8517;53.546;10.104;2023-05-10T09:12:51;4.80;;;3.70;;
11220;SDS011;8517;53.546;10.104;2023-05-10T09:15:18;5.43;;;3.90;;
11220;SDS011;8517;53.546;10.104;2023-05-10T09:17:45;5.17;;;4.37;;
11220;SDS011;8517;53.546;10.104;2023-05-10T09:20:13;5.00;;;4.00;;
11220;SDS011;8517;53.546;10.104;2023-05-10T09:22:40;6.80;;;4.20;;
11220;SDS011;8517;53.546;10.104;2023-05-10T09:25:07;9.57;;;4.23;;
11220;SDS011;8517;53.546;10.104;2023-05-10T09:27:37;14.63;;;11.57;;
11220;SDS011;8517;53.546;10.104;2023-05-10T09:30:05;12.20;;;8.03;;
11220;SDS011;8517;53.546;10.104;2023-05-10T09:32:37;5.60;;;4.67;;
11220;SDS011;8517;53.546;10.104;2023-05-10T09:35:07;5.43;;;4.33;;
11220;SDS011;8517;53.546;10.104;2023-05-10T09:37:35;4.83;;;4.13;;
11220;SDS011;8517;53.546;10.104;2023-05-10T09:40:04;4.87;;;4.47;;
11220;SDS011;8517;53.546;10.104;2023-05-10T09:42:32;7.53;;;4.83;;
11220;SDS011;8517;53.546;10.104;2023-05-10T09:45:01;8.57;;;4.43;;
11220;SDS011;8517;53.546;10.104;2023-05-10T09:47:31;4.07;;;3.67;;
11220;SDS011;8517;53.546;10.104;2023-05-10T09:49:58;7.33;;;4.33;;
11220;SDS011;8517;53.546;10.104;2023-05-10T09:52:28;6.13;;;4.87;;
11220;SDS011;8517;53.546;10.104;2023-05-10T09:54:55;4.30;;;3.90;;
11220;SDS011;8517;53.546;10.104;2023-05-10T09:57:23;4.80;;;4.40;;
11220;SDS011;8517;53.546;10.104;2023-05-10T09:59:50;10.70;;;7.40;;
11220;SDS011;8517;53.546;10.104;2023-05-10T10:02:20;7.13;;;5.87;;
11220;SDS011;8517;53.546;10.104;2023-05-10T10:04:54;5.30;;;4.80;;
11220;SDS011;8517;53.546;10.104;2023-05-10T10:07:22;8.90;;;5.10;;
11220;SDS011;8517;53.546;10.104;2023-05-10T10:09:50;6.03;;;4.90;;
11220;SDS011;8517;53.546;10.104;2023-05-10T10:12:17;5.20;;;4.70;;
11220;SDS011;8517;53.546;10.104;2023-05-10T10:14:45;5.60;;;5.00;;
11220;SDS011;8517;53.546;10.104;2023-05-10T10:17:14;7.00;;;5.17;;
11220;SDS011;8517;53.546;10.104;2023-05-10T10:19:42;7.47;;;5.50;;
11220;SDS011;8517;53.546;10.104;2023-05-10T10:22:11;8.47;;;6.00;;
11220;SDS011;8517;53.546;10.104;2023-05-10T10:24:38;5.80;;;5.30;;
11220;SDS011;8517;53.546;10.104;2023-05-10T10:27:11;6.73;;;5.63;;
11220;SDS011;8517;53.546;10.104;2023-05-10T10:29:47;7.17;;;5.70;;
11220;SDS011;8517;53.546;10.104;2023-05-10T10:32:26;6.67;;;5.97;;
11220;SDS011;8517;53.546;10.104;2023-05-10T10:35:00;6.37;;;5.77;;
11220;SDS011;8517;53.546;10.104;2023-05-10T10:37:41;7.23;;;6.50;;
11220;SDS011;8517;53.546;10.104;2023-05-10T10:40:22;6.77;;;5.57;;
11220;SDS011;8517;53.546;10.104;2023-05-10T10:42:50;7.63;;;5.70;;
11220;SDS011;8517;53.546;10.104;2023-05-10T10:45:19;6.83;;;6.20;;
11220;SDS011;8517;53.546;10.104;2023-05-10T10:47:47;8.03;;;6.47;;
11220;SDS011;8517;53.546;10.104;2023-05-10T10:50:16;8.73;;;6.77;;
11220;SDS011;8517;53.546;10.104;2023-05-10T10:52:43;7.07;;;6.43;;
11220;SDS011;8517;53.546;10.104;2023-05-10T10:55:10;7.23;;;6.53;;
11220;SDS011;8517;53.546;10.104;2023-05-10T10:57:43;6.90;;;6.03;;
11220;SDS011;8517;53.546;10.104;2023-05-10T11:00:17;7.33;;;6.50;;
11220;SDS011;8517;53.546;10.104;2023-05-10T11:02:46;7.37;;;6.60;;
11220;SDS011;8517;53.546;10.104;2023-05-10T11:08:08;8.43;;;7.23;;
11220;SDS011;8517;53.546;10.104;2023-05-10T11:10:50;11.07;;;7.50;;
11220;SDS011;8517;53.546;10.104;2023-05-10T11:13:37;7.83;;;6.87;;
11220;SDS011;8517;53.546;10.104;2023-05-10T11:16:14;9.40;;;7.63;;
11220;SDS011;8517;53.546;10.104;2023-05-10T11:18:52;9.03;;;7.93;;
11220;SDS011;8517;53.546;10.104;2023-05-10T11:21:21;8.53;;;7.53;;
11220;SDS011;8517;53.546;10.104;2023-05-10T11:23:48;7.70;;;7.00;;
11220;SDS011;8517;53.546;10.104;2023-05-10T11:26:16;9.40;;;7.70;;
11220;SDS011;8517;53.546;10.104;2023-05-10T11:28:44;9.57;;;7.37;;
11220;SDS011;8517;53.546;10.104;2023-05-10T11:31:13;8.37;;;7.43;;
11220;SDS011;8517;53.546;10.104;2023-05-10T11:33:43;8.40;;;7.47;;
11220;SDS011;8517;53.546;10.104;2023-05-10T11:36:10;8.10;;;7.23;;
11220;SDS011;8517;53.546;10.104;2023-05-10T11:38:39;10.57;;;8.47;;
11220;SDS011;8517;53.546;10.104;2023-05-10T11:41:07;9.60;;;7.67;;
11220;SDS011;8517;53.546;10.104;2023-05-10T11:43:35;8.53;;;7.73;;
11220;SDS011;8517;53.546;10.104;2023-05-10T11:46:03;8.83;;;8.03;;
11220;SDS011;8517;53.546;10.104;2023-05-10T11:48:31;8.87;;;8.07;;
11220;SDS011;8517;53.546;10.104;2023-05-10T11:50:58;10.70;;;8.30;;
11220;SDS011;8517;53.546;10.104;2023-05-10T11:53:27;9.10;;;8.20;;
11220;SDS011;8517;53.546;10.104;2023-05-10T11:55:58;11.87;;;9.30;;
11220;SDS011;8517;53.546;10.104;2023-05-10T11:58:29;9.40;;;8.40;;
11220;SDS011;8517;53.546;10.104;2023-05-10T12:00:56;8.80;;;7.90;;
11220;SDS011;8517;53.546;10.104;2023-05-10T12:03:23;9.13;;;8.20;;
11220;SDS011;8517;53.546;10.104;2023-05-10T12:05:50;10.53;;;9.37;;
11220;SDS011;8517;53.546;10.104;2023-05-10T12:08:19;10.03;;;8.87;;
11220;SDS011;8517;53.546;10.104;2023-05-10T12:10:47;9.43;;;8.27;;
11220;SDS011;8517;53.546;10.104;2023-05-10T12:13:16;11.53;;;9.93;;
11220;SDS011;8517;53.546;10.104;2023-05-10T12:15:43;8.80;;;7.57;;
11220;SDS011;8517;53.546;10.104;2023-05-10T12:18:10;8.97;;;8.07;;
11220;SDS011;8517;53.546;10.104;2023-05-10T12:20:37;9.73;;;8.27;;
11220;SDS011;8517;53.546;10.104;2023-05-10T12:23:05;9.20;;;8.30;;
11220;SDS011;8517;53.546;10.104;2023-05-10T12:25:35;8.97;;;8.03;;
11220;SDS011;8517;53.546;10.104;2023-05-10T12:28:03;9.77;;;8.60;;
11220;SDS011;8517;53.546;10.104;2023-05-10T12:30:33;8.83;;;7.93;;
11220;SDS011;8517;53.546;10.104;2023-05-10T12:33:01;9.27;;;8.37;;
11220;SDS011;8517;53.546;10.104;2023-05-10T12:35:33;11.70;;;7.80;;
11220;SDS011;8517;53.546;10.104;2023-05-10T12:38:22;9.33;;;8.40;;
11220;SDS011;8517;53.546;10.104;2023-05-10T12:40:51;9.63;;;8.63;;
11220;SDS011;8517;53.546;10.104;2023-05-10T12:43:18;9.73;;;8.73;;
11220;SDS011;8517;53.546;10.104;2023-05-10T12:45:46;9.77;;;8.27;;
11220;SDS011;8517;53.546;10.104;2023-05-10T12:48:14;9.30;;;8.33;;
11220;SDS011;8517;53.546;10.104;2023-05-10T12:50:40;8.87;;;7.97;;
11220;SDS011;8517;53.546;10.104;2023-05-10T12:53:07;10.07;;;7.83;;
11220;SDS011;8517;53.546;10.104;2023-05-10T12:55:34;6.87;;;6.27;;
11220;SDS011;8517;53.546;10.104;2023-05-10T12:58:01;7.13;;;6.53;;
11220;SDS011;8517;53.546;10.104;2023-05-10T13:00:28;6.93;;;6.20;;
11220;SDS011;8517;53.546;10.104;2023-05-10T13:02:56;7.90;;;7.10;;
11220;SDS011;8517;53.546;10.104;2023-05-10T13:05:23;7.53;;;6.83;;
11220;SDS011;8517;53.546;10.104;2023-05-10T13:07:50;7.03;;;6.33;;
11220;SDS011;8517;53.546;10.104;2023-05-10T13:10:16;7.60;;;6.77;;
11220;SDS011;8517;53.546;10.104;2023-05-10T13:12:47;7.73;;;6.23;;
11220;SDS011;8517;53.546;10.104;2023-05-10T13:15:14;7.20;;;6.57;;
11220;SDS011;8517;53.546;10.104;2023-05-10T13:17:41;5.57;;;5.07;;
11220;SDS011;8517;53.546;10.104;2023-05-10T13:20:10;5.30;;;4.90;;
11220;SDS011;8517;53.546;10.104;2023-05-10T13:22:37;5.67;;;5.17;;
11220;SDS011;8517;53.546;10.104;2023-05-10T13:25:04;6.50;;;5.90;;
11220;SDS011;8517;53.546;10.104;2023-05-10T13:27:31;7.70;;;5.87;;
11220;SDS011;8517;53.546;10.104;2023-05-10T13:29:58;5.87;;;5.37;;
11220;SDS011;8517;53.546;10.104;2023-05-10T13:32:25;6.07;;;5.53;;
11220;SDS011;8517;53.546;10.104;2023-05-10T13:34:52;6.30;;;5.70;;
11220;SDS011;8517;53.546;10.104;2023-05-10T13:37:20;5.43;;;4.67;;
11220;SDS011;8517;53.546;10.104;2023-05-10T13:39:47;5.70;;;4.93;;
11220;SDS011;8517;53.546;10.104;2023-05-10T13:42:14;5.47;;;4.87;;
11220;SDS011;8517;53.546;10.104;2023-05-10T13:44:41;5.20;;;4.80;;
11220;SDS011;8517;53.546;10.104;2023-05-10T13:47:08;5.07;;;4.57;;
11220;SDS011;8517;53.546;10.104;2023-05-10T13:49:35;5.63;;;5.07;;
11220;SDS011;8517;53.546;10.104;2023-05-10T13:52:02;5.10;;;4.70;;
11220;SDS011;8517;53.546;10.104;2023-05-10T13:54:33;5.33;;;4.40;;
11220;SDS011;8517;53.546;10.104;2023-05-10T13:57:03;4.57;;;4.17;;
11220;SDS011;8517;53.546;10.104;2023-05-10T13:59:30;4.10;;;3.77;;
11220;SDS011;8517;53.546;10.104;2023-05-10T14:01:57;3.90;;;3.60;;
11220;SDS011;8517;53.546;10.104;2023-05-10T14:04:24;5.37;;;4.87;;
11220;SDS011;8517;53.546;10.104;2023-05-10T14:06:51;5.60;;;4.07;;
11220;SDS011;8517;53.546;10.104;2023-05-10T14:09:18;4.80;;;3.97;;
11220;SDS011;8517;53.546;10.104;2023-05-10T14:11:47;4.33;;;3.93;;
11220;SDS011;8517;53.546;10.104;2023-05-10T14:14:14;5.20;;;4.00;;
11220;SDS011;8517;53.546;10.104;2023-05-10T14:16:41;4.03;;;3.73;;
11220;SDS011;8517;53.546;10.104;2023-05-10T14:19:09;4.73;;;4.13;;
11220;SDS011;8517;53.546;10.104;2023-05-10T14:21:37;4.40;;;4.00;;
11220;SDS011;8517;53.546;10.104;2023-05-10T14:24:04;4.83;;;3.97;;
11220;SDS011;8517;53.546;10.104;2023-05-10T14:26:31;5.47;;;3.93;;
11220;SDS011;8517;53.546;10.104;2023-05-10T14:29:00;4.57;;;4.17;;
11220;SDS011;8517;53.546;10.104;2023-05-10T14:31:27;4.03;;;3.70;;
11220;SDS011;8517;53.546;10.104;2023-05-10T14:33:55;4.57;;;4.07;;
11220;SDS011;8517;53.546;10.104;2023-05-10T14:36:22;5.23;;;3.80;;
11220;SDS011;8517;53.546;10.104;2023-05-10T14:38:49;3.67;;;3.37;;
11220;SDS011;8517;53.546;10.104;2023-05-10T14:41:15;4.67;;;4.27;;
11220;SDS011;8517;53.546;10.104;2023-05-10T14:43:43;4.23;;;3.83;;
11220;SDS011;8517;53.546;10.104;2023-05-10T14:46:11;5.17;;;4.67;;
11220;SDS011;8517;53.546;10.104;2023-05-10T14:48:38;4.90;;;4.50;;
11220;SDS011;8517;53.546;10.104;2023-05-10T14:51:05;4.93;;;4.47;;
11220;SDS011;8517;53.546;10.104;2023-05-10T14:53:31;5.80;;;4.53;;
11220;SDS011;8517;53.546;10.104;2023-05-10T14:55:58;5.00;;;4.50;;
11220;SDS011;8517;53.546;10.104;2023-05-10T14:58:26;5.20;;;4.70;;
11220;SDS011;8517;53.546;10.104;2023-05-10T15:00:53;5.50;;;5.00;;
11220;SDS011;8517;53.546;10.104;2023-05-10T15:03:21;4.67;;;4.27;;